createdAt,value
2018-08-14T00:00:51.992Z,98048.16
2018-08-14T00:03:20.779Z,98046.84
2018-08-14T00:05:49.558Z,98048.15
2018-08-14T00:08:18.291Z,98045.89
2018-08-14T00:10:47.175Z,98040.05
2018-08-14T00:13:16.048Z,98042.22
2018-08-14T00:15:47.232Z,98041.39
2018-08-14T00:18:15.573Z,98039.41
2018-08-14T00:20:44.777Z,98038.95
2018-08-14T00:23:13.024Z,98037.83
2018-08-14T00:25:42.372Z,98037.97
2018-08-14T00:28:11.605Z,98044.44
2018-08-14T00:30:40.329Z,98035.17
2018-08-14T00:33:08.633Z,98042.30
2018-08-14T00:35:37.295Z,98045.88
2018-08-14T00:38:06.598Z,98036.96
2018-08-14T00:40:35.329Z,98038.41
2018-08-14T00:43:06.372Z,98044.91
2018-08-14T00:45:34.651Z,98047.86
2018-08-14T00:48:02.844Z,98050.47
2018-08-14T00:50:31.073Z,98046.66
2018-08-14T00:52:59.612Z,98049.43
2018-08-14T00:55:28.084Z,98043.59
2018-08-14T00:57:56.309Z,98055.50
2018-08-14T01:00:29.325Z,98055.66
2018-08-14T01:02:57.824Z,98050.13
2018-08-14T01:05:26.952Z,98052.73
2018-08-14T01:07:55.736Z,98046.84
2018-08-14T01:10:24.835Z,98048.31
2018-08-14T01:12:55.604Z,98049.59
2018-08-14T01:15:26.456Z,98051.91
2018-08-14T01:17:55.496Z,98044.09
2018-08-14T01:20:26.335Z,98046.28
2018-08-14T01:22:54.532Z,98043.00
2018-08-14T01:25:23.408Z,98044.30
2018-08-14T01:27:52.962Z,98043.67
2018-08-14T01:30:28.000Z,98043.04
2018-08-14T01:32:56.234Z,98042.37
2018-08-14T01:35:24.899Z,98041.55
2018-08-14T01:37:53.373Z,98043.82
2018-08-14T01:40:21.592Z,98039.12
2018-08-14T01:42:49.727Z,98041.84
2018-08-14T01:45:17.975Z,98039.75
2018-08-14T01:47:46.697Z,98046.91
2018-08-14T01:50:21.092Z,98047.23
2018-08-14T01:52:49.862Z,98045.59
2018-08-14T01:55:20.364Z,98045.75
2018-08-14T01:57:49.424Z,98043.63
2018-08-14T02:00:19.253Z,98046.42
2018-08-14T02:02:48.225Z,98043.81
2018-08-14T02:05:16.439Z,98049.22
2018-08-14T02:07:44.957Z,98041.55
2018-08-14T02:10:15.616Z,98050.33
2018-08-14T02:12:43.859Z,98053.08
2018-08-14T02:15:15.076Z,98054.55
2018-08-14T02:17:43.988Z,98051.16
2018-08-14T02:20:17.580Z,98051.79
2018-08-14T02:22:46.362Z,98052.64
2018-08-14T02:25:14.957Z,98055.25
2018-08-14T02:27:44.171Z,98056.41
2018-08-14T02:30:13.086Z,98047.44
2018-08-14T02:32:41.309Z,98050.86
2018-08-14T02:35:10.709Z,98049.26
2018-08-14T02:37:39.100Z,98050.56
2018-08-14T02:40:15.878Z,98056.59
2018-08-14T02:42:44.704Z,98058.37
2018-08-14T02:45:13.045Z,98059.55
2018-08-14T02:47:41.487Z,98055.78
2018-08-14T02:50:12.338Z,98054.80
2018-08-14T02:52:40.991Z,98053.84
2018-08-14T02:55:13.637Z,98053.95
2018-08-14T02:57:42.195Z,98052.65
2018-08-14T03:00:20.368Z,98059.67
2018-08-14T03:02:48.996Z,98061.78
2018-08-14T03:05:17.527Z,98065.34
2018-08-14T03:07:45.680Z,98066.00
2018-08-14T03:10:13.992Z,98065.32
2018-08-14T03:12:43.066Z,98061.72
2018-08-14T03:15:16.658Z,98069.38
2018-08-14T03:17:48.119Z,98071.49
2018-08-14T03:20:16.520Z,98076.20
2018-08-14T03:22:45.181Z,98077.18
2018-08-14T03:25:13.460Z,98073.95
2018-08-14T03:27:41.940Z,98076.38
2018-08-14T03:30:11.536Z,98086.93
2018-08-14T03:32:40.336Z,98089.20
2018-08-14T03:35:11.016Z,98094.70
2018-08-14T03:37:39.200Z,98097.16
2018-08-14T03:40:14.654Z,98094.38
2018-08-14T03:42:44.403Z,98103.64
2018-08-14T03:45:12.889Z,98104.13
2018-08-14T03:47:41.635Z,98104.27
2018-08-14T03:50:10.663Z,98110.77
2018-08-14T03:52:40.212Z,98105.08
2018-08-14T03:55:10.443Z,98104.45
2018-08-14T03:57:38.964Z,98108.34
2018-08-14T04:00:10.416Z,98107.20
2018-08-14T04:02:39.148Z,98107.38
2018-08-14T04:05:07.531Z,98113.84
2018-08-14T04:07:35.824Z,98114.91
2018-08-14T04:10:05.361Z,98116.30
2018-08-14T04:12:33.469Z,98113.38
2018-08-14T04:15:01.758Z,98112.56
2018-08-14T04:17:29.945Z,98116.06
2018-08-14T04:19:58.164Z,98122.11
2018-08-14T04:22:26.417Z,98129.41
2018-08-14T04:24:54.617Z,98135.00
2018-08-14T04:27:23.209Z,98135.45
2018-08-14T04:29:51.680Z,98136.48
2018-08-14T04:32:19.893Z,98141.00
2018-08-14T04:34:48.649Z,98145.38
2018-08-14T04:37:16.950Z,98149.42
2018-08-14T04:39:45.140Z,98154.91
2018-08-14T04:42:13.413Z,98164.31
2018-08-14T04:44:41.829Z,98171.49
2018-08-14T04:47:10.056Z,98174.19
2018-08-14T04:49:38.346Z,98172.53
2018-08-14T04:52:06.648Z,98187.66
2018-08-14T04:54:35.194Z,98184.77
2018-08-14T04:57:03.666Z,98187.69
2018-08-14T04:59:31.872Z,98192.35
2018-08-14T05:02:00.432Z,98193.34
2018-08-14T05:04:29.186Z,98197.75
2018-08-14T05:06:57.401Z,98199.50
2018-08-14T05:09:25.628Z,98191.12
2018-08-14T05:11:54.029Z,98194.56
2018-08-14T05:14:29.082Z,98197.98
2018-08-14T05:16:57.343Z,98202.53
2018-08-14T05:19:26.628Z,98202.55
2018-08-14T05:21:54.840Z,98193.78
2018-08-14T05:24:23.424Z,98195.78
2018-08-14T05:26:52.272Z,98197.38
2018-08-14T05:29:21.112Z,98200.39
2018-08-14T05:31:49.625Z,98204.41
2018-08-14T05:34:18.719Z,98197.77
2018-08-14T05:36:47.217Z,98201.23
2018-08-14T05:39:15.366Z,98212.67
2018-08-14T05:41:43.784Z,98220.49
2018-08-14T05:44:22.164Z,98218.55
2018-08-14T05:46:50.445Z,98220.16
2018-08-14T05:49:19.049Z,98221.80
2018-08-14T05:51:47.904Z,98225.85
2018-08-14T05:54:16.498Z,98234.02
2018-08-14T05:56:46.393Z,98230.92
2018-08-14T05:59:14.916Z,98235.96
2018-08-14T06:01:43.505Z,98232.73
2018-08-14T06:04:12.435Z,98240.05
2018-08-14T06:06:40.977Z,98235.77
2018-08-14T06:09:11.668Z,98236.62
2018-08-14T06:11:40.856Z,98241.33
2018-08-14T06:14:09.568Z,98249.34
2018-08-14T06:16:38.580Z,98246.84
2018-08-14T06:19:08.035Z,98242.66
2018-08-14T06:21:36.545Z,98242.69
2018-08-14T06:24:04.884Z,98255.53
2018-08-14T06:26:33.107Z,98250.31
2018-08-14T06:29:01.327Z,98257.96
2018-08-14T06:31:29.765Z,98264.64
2018-08-14T06:33:58.007Z,98261.72
2018-08-14T06:36:26.536Z,98265.45
2018-08-14T06:38:54.880Z,98264.92
2018-08-14T06:41:23.071Z,98268.55
2018-08-14T06:43:51.410Z,98267.83
2018-08-14T06:46:19.808Z,98277.34
2018-08-14T06:48:48.658Z,98273.89
2018-08-14T06:51:17.080Z,98281.25
2018-08-14T06:53:45.723Z,98284.66
2018-08-14T06:56:14.495Z,98297.38
2018-08-14T06:58:42.952Z,98287.64
2018-08-14T07:01:11.715Z,98284.80
2018-08-14T07:03:39.913Z,98279.56
2018-08-14T07:06:08.198Z,98294.13
2018-08-14T07:08:36.525Z,98302.91
2018-08-14T07:11:04.998Z,98304.34
2018-08-14T07:13:33.206Z,98303.73
2018-08-14T07:16:01.398Z,98300.83
2018-08-14T07:18:29.755Z,98307.61
2018-08-14T07:20:57.968Z,98293.02
2018-08-14T07:23:26.867Z,98291.63
2018-08-14T07:25:55.076Z,98289.52
2018-08-14T07:28:23.617Z,98297.27
2018-08-14T07:30:51.865Z,98296.34
2018-08-14T07:33:20.114Z,98297.84
2018-08-14T07:35:48.573Z,98300.10
2018-08-14T07:38:17.075Z,98304.38
2018-08-14T07:40:45.516Z,98302.34
2018-08-14T07:43:13.742Z,98303.13
2018-08-14T07:45:42.628Z,98319.83
2018-08-14T07:48:10.870Z,98322.08
2018-08-14T07:50:39.147Z,98307.08
2018-08-14T07:53:07.444Z,98312.02
2018-08-14T07:55:35.709Z,98316.27
2018-08-14T07:58:07.280Z,98317.77
2018-08-14T08:00:35.475Z,98325.86
2018-08-14T08:03:03.813Z,98331.81
2018-08-14T08:05:32.064Z,98331.47
2018-08-14T08:08:05.461Z,98329.43
2018-08-14T08:10:33.657Z,98325.07
2018-08-14T08:13:02.030Z,98331.20
2018-08-14T08:15:30.365Z,98335.78
2018-08-14T08:17:58.977Z,98330.31
2018-08-14T08:20:28.997Z,98338.90
2018-08-14T08:22:57.765Z,98328.67
2018-08-14T08:25:26.924Z,98327.82
2018-08-14T08:28:02.200Z,98330.67
2018-08-14T08:30:30.929Z,98328.97
2018-08-14T08:32:59.181Z,98336.25
2018-08-14T08:35:28.245Z,98340.94
2018-08-14T08:37:57.207Z,98346.27
2018-08-14T08:40:25.765Z,98336.61
2018-08-14T08:42:54.000Z,98337.02
2018-08-14T08:45:22.548Z,98332.45
2018-08-14T08:48:07.011Z,98329.25
2018-08-14T08:50:35.676Z,98321.19
2018-08-14T08:53:04.052Z,98323.42
2018-08-14T08:55:32.715Z,98341.32
2018-08-14T08:58:01.016Z,98330.77
2018-08-14T09:00:30.029Z,98332.45
2018-08-14T09:02:58.271Z,98344.25
2018-08-14T09:05:27.083Z,98322.81
2018-08-14T09:07:55.784Z,98326.59
2018-08-14T09:10:24.108Z,98328.55
2018-08-14T09:12:52.637Z,98337.04
2018-08-14T09:15:21.179Z,98335.47
2018-08-14T09:17:49.768Z,98340.66
2018-08-14T09:20:18.179Z,98340.22
2018-08-14T09:22:46.680Z,98339.02
2018-08-14T09:25:15.672Z,98336.39
2018-08-14T09:27:45.237Z,98346.87
2018-08-14T09:30:16.673Z,98348.69
2018-08-14T09:32:45.271Z,98350.88
2018-08-14T09:35:15.618Z,98349.58
2018-08-14T09:37:44.313Z,98340.78
2018-08-14T09:43:15.598Z,98337.94
2018-08-14T09:45:45.069Z,98341.36
2018-08-14T09:48:13.700Z,98345.46
2018-08-14T09:50:41.927Z,98335.67
2018-08-14T09:53:10.376Z,98332.48
2018-08-14T09:55:38.753Z,98323.47
2018-08-14T09:58:07.157Z,98346.56
2018-08-14T10:00:41.057Z,98347.61
2018-08-14T10:03:20.316Z,98351.55
2018-08-14T10:06:54.619Z,98333.08
2018-08-14T10:09:24.329Z,98346.45
2018-08-14T10:11:53.548Z,98345.09
2018-08-14T10:14:26.360Z,98350.11
2018-08-14T10:16:54.911Z,98349.88
2018-08-14T10:19:23.672Z,98356.75
2018-08-14T10:21:51.997Z,98360.16
2018-08-14T10:24:21.376Z,98367.88
2018-08-14T10:26:50.660Z,98347.35
2018-08-14T10:29:18.973Z,98352.02
2018-08-14T10:31:47.412Z,98342.08
2018-08-14T10:34:15.840Z,98372.28
2018-08-14T10:36:44.429Z,98345.88
2018-08-14T10:39:12.940Z,98347.64
2018-08-14T10:41:41.891Z,98354.84
2018-08-14T10:44:10.665Z,98337.06
2018-08-14T10:46:38.900Z,98334.81
2018-08-14T10:49:07.254Z,98349.01
2018-08-14T10:51:35.764Z,98337.13
2018-08-14T10:54:04.133Z,98348.56
2018-08-14T10:56:32.652Z,98342.46
2018-08-14T10:59:01.048Z,98338.22
2018-08-14T11:01:30.598Z,98348.52
2018-08-14T11:03:58.806Z,98347.66
2018-08-14T11:06:27.887Z,98355.52
2018-08-14T11:08:56.868Z,98351.27
2018-08-14T11:11:29.072Z,98338.63
2018-08-14T11:14:01.281Z,98348.80
2018-08-14T11:16:29.562Z,98339.78
2018-08-14T11:18:58.440Z,98341.51
2018-08-14T11:21:26.788Z,98336.95
2018-08-14T11:23:55.025Z,98341.25
2018-08-14T11:26:23.552Z,98349.75
2018-08-14T11:28:52.330Z,98347.47
2018-08-14T11:31:27.290Z,98342.98
2018-08-14T11:33:55.585Z,98339.91
2018-08-14T11:36:27.684Z,98339.34
2018-08-14T11:38:57.203Z,98331.02
2018-08-14T11:41:25.413Z,98338.75
2018-08-14T11:43:53.705Z,98345.88
2018-08-14T11:46:22.200Z,98332.03
2018-08-14T11:48:50.414Z,98336.80
2018-08-14T11:51:18.651Z,98339.66
2018-08-14T11:53:47.465Z,98340.16
2018-08-14T11:56:15.752Z,98349.08
2018-08-14T11:58:44.282Z,98361.11
2018-08-14T12:01:12.758Z,98358.50
2018-08-14T12:03:40.968Z,98348.84
2018-08-14T12:06:09.248Z,98351.10
2018-08-14T12:08:38.027Z,98357.70
2018-08-14T12:11:06.260Z,98348.16
2018-08-14T12:13:34.533Z,98347.57
2018-08-14T12:16:02.786Z,98356.29
2018-08-14T12:18:31.295Z,98350.89
2018-08-14T12:21:00.167Z,98349.38
2018-08-14T12:23:28.337Z,98344.23
2018-08-14T12:25:56.882Z,98344.80
2018-08-14T12:28:25.331Z,98342.56
2018-08-14T12:30:53.617Z,98339.90
2018-08-14T12:33:21.850Z,98354.41
2018-08-14T12:35:50.123Z,98346.67
2018-08-14T12:38:18.352Z,98347.73
2018-08-14T12:40:46.940Z,98350.20
2018-08-14T12:43:15.520Z,98345.15
2018-08-14T12:45:44.017Z,98350.66
2018-08-14T12:48:13.016Z,98338.78
2018-08-14T12:50:41.463Z,98348.78
2018-08-14T12:53:09.773Z,98342.52
2018-08-14T12:55:38.011Z,98354.98
2018-08-14T12:58:06.624Z,98353.52
2018-08-14T13:00:34.879Z,98351.97
2018-08-14T13:03:03.154Z,98343.03
2018-08-14T13:05:31.647Z,98353.03
2018-08-14T13:08:00.880Z,98358.03
2018-08-14T13:10:29.091Z,98343.61
2018-08-14T13:12:57.326Z,98352.23
2018-08-14T13:15:25.535Z,98345.23
2018-08-14T13:18:03.539Z,98348.16
2018-08-14T13:20:31.842Z,98340.59
2018-08-14T13:23:00.611Z,98347.05
2018-08-14T13:25:29.442Z,98348.63
2018-08-14T13:27:58.693Z,98354.80
2018-08-14T13:30:28.636Z,98344.49
2018-08-14T13:32:57.864Z,98352.28
2018-08-14T13:35:26.546Z,98345.97
2018-08-14T13:37:54.929Z,98345.56
2018-08-14T13:40:23.147Z,98354.56
2018-08-14T13:42:51.976Z,98351.08
2018-08-14T13:45:20.837Z,98355.23
2018-08-14T13:47:49.850Z,98353.91
2018-08-14T13:50:18.092Z,98367.84
2018-08-14T13:52:46.964Z,98366.16
2018-08-14T13:55:17.188Z,98359.83
2018-08-14T13:57:46.745Z,98354.00
2018-08-14T14:00:26.544Z,98361.70
2018-08-14T14:02:54.961Z,98373.27
2018-08-14T14:05:23.506Z,98371.66
2018-08-14T14:07:51.749Z,98372.25
2018-08-14T14:10:21.309Z,98369.25
2018-08-14T14:12:49.942Z,98374.97
2018-08-14T14:15:18.180Z,98356.27
2018-08-14T14:17:47.378Z,98352.66
2018-08-14T14:20:18.205Z,98358.55
2018-08-14T14:22:46.459Z,98353.84
2018-08-14T14:25:15.763Z,98361.38
2018-08-14T14:27:43.992Z,98361.68
2018-08-14T14:30:14.213Z,98371.17
2018-08-14T14:32:43.079Z,98360.52
2018-08-14T14:35:12.503Z,98369.47
2018-08-14T14:37:41.519Z,98358.41
2018-08-14T14:40:14.505Z,98365.23
2018-08-14T14:42:42.835Z,98362.25
2018-08-14T14:45:12.737Z,98356.43
2018-08-14T14:47:42.712Z,98371.81
2018-08-14T14:50:12.112Z,98353.33
2018-08-14T14:52:41.312Z,98354.53
2018-08-14T14:55:18.266Z,98353.09
2018-08-14T14:57:46.743Z,98342.50
2018-08-14T15:00:21.657Z,98376.24
2018-08-14T15:02:54.328Z,98374.77
2018-08-14T15:05:23.509Z,98362.08
2018-08-14T15:07:52.805Z,98367.88
2018-08-14T15:10:21.694Z,98372.52
2018-08-14T15:12:50.615Z,98380.19
2018-08-14T15:15:18.826Z,98381.62
2018-08-14T15:17:47.987Z,98391.85
2018-08-14T15:20:20.131Z,98397.48
2018-08-14T15:22:49.560Z,98395.02
2018-08-14T15:25:19.674Z,98381.89
2018-08-14T15:29:13.804Z,98382.18
2018-08-14T15:31:45.406Z,98391.13
2018-08-14T15:34:16.945Z,98393.69
2018-08-14T15:36:48.395Z,98392.52
2018-08-14T15:39:18.785Z,98401.51
2018-08-14T15:41:47.405Z,98394.75
2018-08-14T15:44:15.822Z,98402.42
2018-08-14T15:46:44.812Z,98421.41
2018-08-14T15:49:13.343Z,98403.89
2018-08-14T15:51:42.287Z,98409.88
2018-08-14T15:54:12.058Z,98414.23
2018-08-14T15:56:40.662Z,98411.39
2018-08-14T15:59:09.785Z,98421.36
2018-08-14T16:01:38.294Z,98411.44
2018-08-14T16:04:09.875Z,98401.71
2018-08-14T16:06:38.064Z,98403.20
2018-08-14T16:09:19.859Z,98407.93
2018-08-14T16:11:48.870Z,98403.18
2018-08-14T16:14:17.154Z,98406.34
2018-08-14T16:16:45.492Z,98408.45
2018-08-14T16:19:14.884Z,98406.13
2018-08-14T16:21:43.277Z,98412.33
2018-08-14T16:24:13.917Z,98412.56
2018-08-14T16:26:42.552Z,98418.67
2018-08-14T16:29:11.063Z,98412.44
2018-08-14T16:31:39.620Z,98421.06
2018-08-14T16:34:08.172Z,98416.59
2018-08-14T16:36:37.864Z,98417.41
2018-08-14T16:39:09.708Z,98412.83
2018-08-14T16:41:37.898Z,98415.45
2018-08-14T16:44:06.174Z,98417.41
2018-08-14T16:46:34.720Z,98412.03
2018-08-14T16:49:03.005Z,98416.54
2018-08-14T16:51:31.815Z,98414.75
2018-08-14T16:54:00.432Z,98417.22
2018-08-14T16:56:28.973Z,98405.69
2018-08-14T16:58:57.744Z,98409.80
2018-08-14T17:01:26.456Z,98418.01
2018-08-14T17:03:55.047Z,98425.38
2018-08-14T17:06:23.287Z,98419.28
2018-08-14T17:08:51.706Z,98425.91
2018-08-14T17:11:20.184Z,98425.36
2018-08-14T17:13:48.556Z,98428.37
2018-08-14T17:16:18.171Z,98435.12
2018-08-14T17:18:46.505Z,98433.85
2018-08-14T17:21:13.133Z,98439.55
2018-08-14T17:23:41.605Z,98438.00
2018-08-14T17:26:09.826Z,98441.75
2018-08-14T17:28:38.226Z,98442.56
2018-08-14T17:31:06.636Z,98441.88
2018-08-14T17:33:35.378Z,98447.63
2018-08-14T17:36:03.851Z,98450.33
2018-08-14T17:38:32.140Z,98457.69
2018-08-14T17:41:00.450Z,98453.50
2018-08-14T17:43:29.245Z,98455.51
2018-08-14T17:45:57.464Z,98458.44
2018-08-14T17:48:26.010Z,98461.23
2018-08-14T17:50:54.585Z,98461.30
2018-08-14T17:53:23.589Z,98470.52
2018-08-14T17:55:51.873Z,98472.27
2018-08-14T17:58:20.163Z,98477.41
2018-08-14T18:00:48.490Z,98474.64
2018-08-14T18:03:16.873Z,98478.36
2018-08-14T18:05:45.157Z,98480.34
2018-08-14T18:08:13.469Z,98486.45
2018-08-14T18:10:42.236Z,98490.59
2018-08-14T18:13:10.527Z,98494.38
2018-08-14T18:15:38.772Z,98502.36
2018-08-14T18:18:07.677Z,98501.59
2018-08-14T18:20:36.872Z,98503.39
2018-08-14T18:23:06.448Z,98509.55
2018-08-14T18:25:35.791Z,98505.85
2018-08-14T18:28:04.548Z,98514.02
2018-08-14T18:30:32.987Z,98520.98
2018-08-14T18:33:01.579Z,98524.63
2018-08-14T18:35:30.429Z,98525.13
2018-08-14T18:37:58.911Z,98526.14
2018-08-14T18:40:27.417Z,98525.92
2018-08-14T18:42:55.946Z,98530.45
2018-08-14T18:45:24.147Z,98539.06
2018-08-14T18:47:52.921Z,98541.36
2018-08-14T18:50:21.520Z,98552.58
2018-08-14T18:52:49.902Z,98549.37
2018-08-14T18:55:18.950Z,98553.17
2018-08-14T18:57:48.170Z,98555.84
2018-08-14T19:00:23.784Z,98558.63
2018-08-14T19:02:53.214Z,98553.75
2018-08-14T19:05:22.243Z,98557.88
2018-08-14T19:07:50.486Z,98566.01
2018-08-14T19:10:20.281Z,98564.26
2018-08-14T19:12:49.485Z,98566.14
2018-08-14T19:15:23.407Z,98578.17
2018-08-14T19:17:51.953Z,98574.23
2018-08-14T19:20:20.203Z,98578.44
2018-08-14T19:22:48.797Z,98576.91
2018-08-14T19:25:17.033Z,98580.34
2018-08-14T19:27:45.390Z,98578.66
2018-08-14T19:30:14.476Z,98581.98
2018-08-14T19:32:43.450Z,98582.86
2018-08-14T19:35:14.605Z,98584.59
2018-08-14T19:37:43.353Z,98582.37
2018-08-14T19:40:17.466Z,98584.43
2018-08-14T19:42:46.794Z,98586.44
2018-08-14T19:45:15.366Z,98587.98
2018-08-14T19:47:43.797Z,98580.87
2018-08-14T19:50:14.038Z,98583.00
2018-08-14T19:52:42.911Z,98586.44
2018-08-14T19:55:13.487Z,98584.97
2018-08-14T19:57:44.472Z,98583.42
2018-08-14T20:00:20.336Z,98588.23
2018-08-14T20:02:49.392Z,98594.50
2018-08-14T20:05:18.183Z,98591.77
2018-08-14T20:07:47.013Z,98590.52
2018-08-14T20:10:15.314Z,98597.12
2018-08-14T20:12:43.729Z,98597.44
2018-08-14T20:15:14.724Z,98596.95
2018-08-14T20:17:43.214Z,98597.06
2018-08-14T20:20:14.352Z,98597.99
2018-08-14T20:22:42.917Z,98602.66
2018-08-14T20:25:11.580Z,98601.33
2018-08-14T20:27:40.105Z,98609.52
2018-08-14T20:30:13.386Z,98612.66
2018-08-14T20:32:41.660Z,98610.21
2018-08-14T20:35:12.616Z,98607.65
2018-08-14T20:37:41.164Z,98613.39
2018-08-14T20:40:13.508Z,98612.06
2018-08-14T20:42:42.670Z,98616.16
2018-08-14T20:45:12.240Z,98623.41
2018-08-14T20:47:41.123Z,98622.43
2018-08-14T20:50:14.576Z,98623.39
2018-08-14T20:52:43.251Z,98626.02
2018-08-14T20:55:12.827Z,98633.59
2018-08-14T20:57:42.512Z,98636.24
2018-08-14T21:00:23.192Z,98629.70
2018-08-14T21:02:53.069Z,98629.37
2018-08-14T21:05:23.159Z,98624.99
2018-08-14T21:07:52.108Z,98628.77
2018-08-14T21:10:21.599Z,98620.92
2018-08-14T21:12:49.932Z,98628.09
2018-08-14T21:16:25.839Z,98624.49
2018-08-14T21:18:56.469Z,98623.53
2018-08-14T21:21:25.414Z,98626.13
2018-08-14T21:23:54.597Z,98635.13
2018-08-14T21:26:23.910Z,98627.11
2018-08-14T21:28:52.695Z,98633.98
2018-08-14T21:31:20.956Z,98631.05
2018-08-14T21:33:49.196Z,98634.95
2018-08-14T21:36:17.505Z,98631.36
2018-08-14T21:38:45.725Z,98640.17
2018-08-14T21:41:14.281Z,98636.12
2018-08-14T21:43:48.226Z,98639.35
2018-08-14T21:46:16.835Z,98641.82
2018-08-14T21:48:45.224Z,98636.25
2018-08-14T21:51:13.945Z,98639.77
2018-08-14T21:53:42.265Z,98639.77
2018-08-14T21:56:10.864Z,98646.67
2018-08-14T21:58:39.057Z,98641.14
2018-08-14T22:01:10.187Z,98648.64
2018-08-14T22:03:40.520Z,98651.72
2018-08-14T22:06:09.960Z,98653.52
2018-08-14T22:08:38.321Z,98657.55
2018-08-14T22:11:07.297Z,98654.61
2018-08-14T22:13:36.557Z,98657.55
2018-08-14T22:16:05.906Z,98665.55
2018-08-14T22:18:36.466Z,98661.28
2018-08-14T22:21:06.843Z,98661.94
2018-08-14T22:23:35.862Z,98663.38
2018-08-14T22:26:04.456Z,98670.53
2018-08-14T22:28:32.641Z,98669.84
2018-08-14T22:31:00.919Z,98676.75
2018-08-14T22:33:29.385Z,98675.61
2018-08-14T22:35:58.021Z,98679.66
2018-08-14T22:38:26.592Z,98688.33
2018-08-14T22:40:55.071Z,98685.31
2018-08-14T22:43:23.846Z,98680.86
2018-08-14T22:45:52.409Z,98680.58
2018-08-14T22:48:20.798Z,98690.05
2018-08-14T22:50:49.682Z,98687.73
2018-08-14T22:53:18.991Z,98687.90
2018-08-14T22:55:47.226Z,98692.55
2018-08-14T22:58:15.512Z,98693.38
2018-08-14T23:00:44.014Z,98687.78
2018-08-14T23:03:12.785Z,98694.71
2018-08-14T23:05:41.152Z,98697.46
2018-08-14T23:08:09.641Z,98699.77
2018-08-14T23:10:40.488Z,98705.37
2018-08-14T23:13:09.415Z,98702.55
2018-08-14T23:15:39.928Z,98709.11
2018-08-14T23:18:08.717Z,98707.36
2018-08-14T23:20:37.161Z,98713.67
2018-08-14T23:23:08.315Z,98708.70
2018-08-14T23:25:37.333Z,98713.98
2018-08-14T23:28:06.104Z,98715.14
2018-08-14T23:30:35.344Z,98714.38
2018-08-14T23:33:03.728Z,98717.77
2018-08-14T23:35:32.260Z,98711.47
2018-08-14T23:38:01.249Z,98712.91
2018-08-14T23:40:29.928Z,98716.47
2018-08-14T23:42:59.248Z,98715.08
2018-08-14T23:45:27.548Z,98717.81
2018-08-14T23:47:56.043Z,98718.59
2018-08-14T23:50:24.351Z,98722.72
2018-08-14T23:52:54.142Z,98719.41
2018-08-14T23:55:22.525Z,98719.70
2018-08-14T23:57:51.497Z,98717.10
